sensor_id;sensor_type;location;lat;lon;timestamp;pressure;altitude;pressure_sealevel;temperature;humidity
75136;BME280;63707;52.212;9.540;2023-07-20T00:01:51;99761.13;;;13.54;100.00
75136;BME280;63707;52.212;9.540;2023-07-20T00:04:17;99758.41;;;13.54;100.00
75136;BME280;63707;52.212;9.540;2023-07-20T00:06:42;99764.94;;;13.53;100.00
75136;BME280;63707;52.212;9.540;2023-07-20T00:09:09;99770.88;;;13.50;100.00
75136;BME280;63707;52.212;9.540;2023-07-20T00:11:36;99752.06;;;13.42;100.00
75136;BME280;63707;52.212;9.540;2023-07-20T00:14:02;99759.09;;;13.50;100.00
75136;BME280;63707;52.212;9.540;2023-07-20T00:16:27;99755.06;;;13.52;100.00
75136;BME280;63707;52.212;9.540;2023-07-20T00:18:53;99750.19;;;13.54;100.00
75136;BME280;63707;52.212;9.540;2023-07-20T00:21:18;99746.13;;;13.45;100.00
75136;BME280;63707;52.212;9.540;2023-07-20T00:23:44;99740.66;;;13.45;100.00
75136;BME280;63707;52.212;9.540;2023-07-20T00:26:11;99739.59;;;13.46;100.00
75136;BME280;63707;52.212;9.540;2023-07-20T00:28:36;99743.38;;;13.45;100.00
75136;BME280;63707;52.212;9.540;2023-07-20T00:31:02;99749.69;;;13.46;100.00
75136;BME280;63707;52.212;9.540;2023-07-20T00:33:28;99751.84;;;13.55;100.00
75136;BME280;63707;52.212;9.540;2023-07-20T00:35:53;99753.06;;;13.60;100.00
75136;BME280;63707;52.212;9.540;2023-07-20T00:38:19;99748.75;;;13.52;100.00
75136;BME280;63707;52.212;9.540;2023-07-20T00:40:44;99750.50;;;13.35;100.00
75136;BME280;63707;52.212;9.540;2023-07-20T00:43:11;99744.50;;;13.26;100.00
75136;BME280;63707;52.212;9.540;2023-07-20T00:45:38;99750.03;;;13.19;100.00
75136;BME280;63707;52.212;9.540;2023-07-20T00:48:04;99746.91;;;13.16;100.00
75136;BME280;63707;52.212;9.540;2023-07-20T00:50:32;99752.47;;;13.09;100.00
75136;BME280;63707;52.212;9.540;2023-07-20T00:52:58;99744.72;;;13.06;100.00
75136;BME280;63707;52.212;9.540;2023-07-20T00:55:23;99750.34;;;13.11;100.00
75136;BME280;63707;52.212;9.540;2023-07-20T00:57:49;99753.38;;;13.21;100.00
75136;BME280;63707;52.212;9.540;2023-07-20T01:00:16;99752.59;;;13.14;100.00
75136;BME280;63707;52.212;9.540;2023-07-20T01:02:42;99747.00;;;13.09;100.00
75136;BME280;63707;52.212;9.540;2023-07-20T01:05:08;99741.75;;;13.08;100.00
75136;BME280;63707;52.212;9.540;2023-07-20T01:07:37;99751.78;;;13.14;100.00
75136;BME280;63707;52.212;9.540;2023-07-20T01:10:11;99754.28;;;13.15;100.00
75136;BME280;63707;52.212;9.540;2023-07-20T01:12:42;99756.34;;;13.20;100.00
75136;BME280;63707;52.212;9.540;2023-07-20T01:15:07;99749.63;;;13.16;100.00
75136;BME280;63707;52.212;9.540;2023-07-20T01:17:34;99748.75;;;13.22;100.00
75136;BME280;63707;52.212;9.540;2023-07-20T01:20:00;99740.78;;;13.20;100.00
75136;BME280;63707;52.212;9.540;2023-07-20T01:22:48;99744.09;;;13.22;100.00
75136;BME280;63707;52.212;9.540;2023-07-20T01:25:25;99742.00;;;13.25;100.00
75136;BME280;63707;52.212;9.540;2023-07-20T01:28:20;99741.53;;;13.09;100.00
75136;BME280;63707;52.212;9.540;2023-07-20T01:30:57;99747.09;;;13.03;100.00
75136;BME280;63707;52.212;9.540;2023-07-20T01:33:26;99738.97;;;12.96;100.00
75136;BME280;63707;52.212;9.540;2023-07-20T01:35:54;99744.38;;;12.84;100.00
75136;BME280;63707;52.212;9.540;2023-07-20T01:38:22;99746.63;;;12.69;100.00
75136;BME280;63707;52.212;9.540;2023-07-20T01:40:49;99756.44;;;12.58;100.00
75136;BME280;63707;52.212;9.540;2023-07-20T01:43:16;99750.97;;;12.58;100.00
75136;BME280;63707;52.212;9.540;2023-07-20T01:45:41;99749.13;;;12.52;100.00
75136;BME280;63707;52.212;9.540;2023-07-20T01:48:07;99751.03;;;12.52;100.00
75136;BME280;63707;52.212;9.540;2023-07-20T01:50:34;99742.16;;;12.56;100.00
75136;BME280;63707;52.212;9.540;2023-07-20T01:52:59;99746.84;;;12.68;100.00
75136;BME280;63707;52.212;9.540;2023-07-20T01:55:25;99748.91;;;12.72;100.00
75136;BME280;63707;52.212;9.540;2023-07-20T01:57:50;99745.56;;;12.70;100.00
75136;BME280;63707;52.212;9.540;2023-07-20T02:00:17;99751.88;;;12.71;100.00
75136;BME280;63707;52.212;9.540;2023-07-20T02:02:44;99748.03;;;12.78;100.00
75136;BME280;63707;52.212;9.540;2023-07-20T02:05:09;99738.59;;;12.92;100.00
75136;BME280;63707;52.212;9.540;2023-07-20T02:07:36;99747.63;;;12.93;100.00
75136;BME280;63707;52.212;9.540;2023-07-20T02:10:02;99750.88;;;13.02;100.00
75136;BME280;63707;52.212;9.540;2023-07-20T02:12:27;99753.78;;;12.88;100.00
75136;BME280;63707;52.212;9.540;2023-07-20T02:14:53;99749.66;;;12.98;100.00
75136;BME280;63707;52.212;9.540;2023-07-20T02:17:18;99744.94;;;13.05;100.00
75136;BME280;63707;52.212;9.540;2023-07-20T02:19:44;99745.22;;;13.15;100.00
75136;BME280;63707;52.212;9.540;2023-07-20T02:22:10;99737.84;;;13.15;100.00
75136;BME280;63707;52.212;9.540;2023-07-20T02:24:37;99739.53;;;13.16;100.00
75136;BME280;63707;52.212;9.540;2023-07-20T02:27:03;99748.91;;;13.09;100.00
75136;BME280;63707;52.212;9.540;2023-07-20T02:29:29;99739.94;;;13.20;100.00
75136;BME280;63707;52.212;9.540;2023-07-20T02:31:54;99748.59;;;13.17;100.00
75136;BME280;63707;52.212;9.540;2023-07-20T02:34:19;99738.09;;;13.14;100.00
75136;BME280;63707;52.212;9.540;2023-07-20T02:36:45;99744.41;;;13.14;100.00
75136;BME280;63707;52.212;9.540;2023-07-20T02:39:11;99743.78;;;13.12;100.00
75136;BME280;63707;52.212;9.540;2023-07-20T02:41:38;99745.22;;;13.15;100.00
75136;BME280;63707;52.212;9.540;2023-07-20T02:44:04;99746.84;;;13.22;100.00
75136;BME280;63707;52.212;9.540;2023-07-20T02:46:29;99744.50;;;13.26;100.00
75136;BME280;63707;52.212;9.540;2023-07-20T02:48:55;99749.06;;;13.32;100.00
75136;BME280;63707;52.212;9.540;2023-07-20T02:51:21;99744.78;;;13.36;100.00
75136;BME280;63707;52.212;9.540;2023-07-20T02:53:46;99745.38;;;13.38;100.00
75136;BME280;63707;52.212;9.540;2023-07-20T02:56:12;99749.94;;;13.44;100.00
75136;BME280;63707;52.212;9.540;2023-07-20T02:58:41;99751.69;;;13.39;100.00
75136;BME280;63707;52.212;9.540;2023-07-20T03:01:08;99741.38;;;13.22;100.00
75136;BME280;63707;52.212;9.540;2023-07-20T03:03:35;99738.88;;;13.21;100.00
75136;BME280;63707;52.212;9.540;2023-07-20T03:06:04;99743.28;;;13.22;100.00
75136;BME280;63707;52.212;9.540;2023-07-20T03:08:29;99750.66;;;13.21;100.00
75136;BME280;63707;52.212;9.540;2023-07-20T03:10:55;99750.78;;;13.08;100.00
75136;BME280;63707;52.212;9.540;2023-07-20T03:13:20;99742.34;;;13.10;100.00
75136;BME280;63707;52.212;9.540;2023-07-20T03:15:47;99745.41;;;13.02;100.00
75136;BME280;63707;52.212;9.540;2023-07-20T03:18:13;99740.91;;;13.07;100.00
75136;BME280;63707;52.212;9.540;2023-07-20T03:20:38;99752.09;;;13.06;100.00
75136;BME280;63707;52.212;9.540;2023-07-20T03:23:04;99745.09;;;13.10;100.00
75136;BME280;63707;52.212;9.540;2023-07-20T03:25:29;99743.88;;;13.06;100.00
75136;BME280;63707;52.212;9.540;2023-07-20T03:27:55;99742.22;;;13.05;100.00
75136;BME280;63707;52.212;9.540;2023-07-20T03:30:20;99743.28;;;13.04;100.00
75136;BME280;63707;52.212;9.540;2023-07-20T03:32:47;99739.47;;;13.05;100.00
75136;BME280;63707;52.212;9.540;2023-07-20T03:35:13;99744.25;;;13.09;100.00
75136;BME280;63707;52.212;9.540;2023-07-20T03:37:38;99749.25;;;13.12;100.00
75136;BME280;63707;52.212;9.540;2023-07-20T03:40:05;99747.38;;;13.13;100.00
75136;BME280;63707;52.212;9.540;2023-07-20T03:42:32;99746.53;;;13.12;100.00
75136;BME280;63707;52.212;9.540;2023-07-20T03:44:58;99747.69;;;13.23;100.00
75136;BME280;63707;52.212;9.540;2023-07-20T03:47:23;99746.19;;;13.27;100.00
75136;BME280;63707;52.212;9.540;2023-07-20T03:49:50;99751.41;;;13.29;100.00
75136;BME280;63707;52.212;9.540;2023-07-20T03:52:16;99757.56;;;13.24;100.00
75136;BME280;63707;52.212;9.540;2023-07-20T03:54:41;99752.25;;;13.29;100.00
75136;BME280;63707;52.212;9.540;2023-07-20T03:57:07;99754.66;;;13.37;100.00
75136;BME280;63707;52.212;9.540;2023-07-20T03:59:36;99750.63;;;13.40;100.00
75136;BME280;63707;52.212;9.540;2023-07-20T04:02:02;99754.34;;;13.45;100.00
75136;BME280;63707;52.212;9.540;2023-07-20T04:04:28;99750.78;;;13.57;100.00
75136;BME280;63707;52.212;9.540;2023-07-20T04:06:54;99754.66;;;13.37;100.00
75136;BME280;63707;52.212;9.540;2023-07-20T04:09:20;99758.22;;;13.38;100.00
75136;BME280;63707;52.212;9.540;2023-07-20T04:11:45;99761.59;;;13.21;100.00
75136;BME280;63707;52.212;9.540;2023-07-20T04:14:11;99769.75;;;13.28;100.00
75136;BME280;63707;52.212;9.540;2023-07-20T04:16:36;99771.63;;;13.28;100.00
75136;BME280;63707;52.212;9.540;2023-07-20T04:19:02;99774.44;;;13.21;100.00
75136;BME280;63707;52.212;9.540;2023-07-20T04:21:28;99772.53;;;13.21;100.00
75136;BME280;63707;52.212;9.540;2023-07-20T04:23:55;99767.53;;;13.18;100.00
75136;BME280;63707;52.212;9.540;2023-07-20T04:26:20;99770.50;;;13.17;100.00
75136;BME280;63707;52.212;9.540;2023-07-20T04:28:46;99766.75;;;13.11;100.00
75136;BME280;63707;52.212;9.540;2023-07-20T04:31:13;99779.06;;;13.20;100.00
75136;BME280;63707;52.212;9.540;2023-07-20T04:33:39;99772.34;;;13.16;100.00
75136;BME280;63707;52.212;9.540;2023-07-20T04:36:05;99778.59;;;13.23;100.00
75136;BME280;63707;52.212;9.540;2023-07-20T04:38:31;99780.06;;;13.26;100.00
75136;BME280;63707;52.212;9.540;2023-07-20T04:40:57;99784.59;;;13.14;100.00
75136;BME280;63707;52.212;9.540;2023-07-20T04:43:23;99783.25;;;13.23;100.00
75136;BME280;63707;52.212;9.540;2023-07-20T04:45:49;99795.25;;;13.22;100.00
75136;BME280;63707;52.212;9.540;2023-07-20T04:48:16;99790.53;;;13.11;100.00
75136;BME280;63707;52.212;9.540;2023-07-20T04:50:44;99786.16;;;13.28;100.00
75136;BME280;63707;52.212;9.540;2023-07-20T04:53:11;99786.03;;;13.16;100.00
75136;BME280;63707;52.212;9.540;2023-07-20T04:55:37;99783.88;;;13.25;100.00
75136;BME280;63707;52.212;9.540;2023-07-20T04:58:04;99789.00;;;13.15;100.00
75136;BME280;63707;52.212;9.540;2023-07-20T05:00:30;99795.66;;;13.26;100.00
75136;BME280;63707;52.212;9.540;2023-07-20T05:02:56;99800.41;;;13.12;100.00
75136;BME280;63707;52.212;9.540;2023-07-20T05:05:21;99791.50;;;13.16;100.00
75136;BME280;63707;52.212;9.540;2023-07-20T05:07:47;99788.72;;;13.05;100.00
75136;BME280;63707;52.212;9.540;2023-07-20T05:10:13;99796.31;;;13.21;100.00
75136;BME280;63707;52.212;9.540;2023-07-20T05:12:38;99792.09;;;13.25;100.00
75136;BME280;63707;52.212;9.540;2023-07-20T05:15:06;99789.41;;;13.18;100.00
75136;BME280;63707;52.212;9.540;2023-07-20T05:17:31;99800.97;;;13.20;100.00
75136;BME280;63707;52.212;9.540;2023-07-20T05:19:57;99796.72;;;13.25;100.00
75136;BME280;63707;52.212;9.540;2023-07-20T05:22:22;99795.84;;;13.24;100.00
75136;BME280;63707;52.212;9.540;2023-07-20T05:24:49;99794.28;;;13.35;100.00
75136;BME280;63707;52.212;9.540;2023-07-20T05:27:15;99805.13;;;13.41;100.00
75136;BME280;63707;52.212;9.540;2023-07-20T05:29:43;99806.66;;;13.37;100.00
75136;BME280;63707;52.212;9.540;2023-07-20T05:32:10;99802.63;;;13.40;100.00
75136;BME280;63707;52.212;9.540;2023-07-20T05:34:36;99804.25;;;13.29;100.00
75136;BME280;63707;52.212;9.540;2023-07-20T05:37:01;99804.00;;;13.61;100.00
75136;BME280;63707;52.212;9.540;2023-07-20T05:39:26;99814.22;;;13.53;100.00
75136;BME280;63707;52.212;9.540;2023-07-20T05:41:52;99817.53;;;13.74;100.00
75136;BME280;63707;52.212;9.540;2023-07-20T05:44:17;99812.06;;;13.74;100.00
75136;BME280;63707;52.212;9.540;2023-07-20T05:46:43;99816.47;;;13.75;100.00
75136;BME280;63707;52.212;9.540;2023-07-20T05:49:10;99812.91;;;13.86;100.00
75136;BME280;63707;52.212;9.540;2023-07-20T05:51:35;99809.09;;;13.75;100.00
75136;BME280;63707;52.212;9.540;2023-07-20T05:54:01;99817.09;;;13.89;100.00
75136;BME280;63707;52.212;9.540;2023-07-20T05:56:27;99812.78;;;13.81;100.00
75136;BME280;63707;52.212;9.540;2023-07-20T05:58:52;99816.22;;;13.76;100.00
75136;BME280;63707;52.212;9.540;2023-07-20T06:01:18;99809.34;;;13.85;100.00
75136;BME280;63707;52.212;9.540;2023-07-20T06:03:44;99815.56;;;14.04;100.00
75136;BME280;63707;52.212;9.540;2023-07-20T06:06:11;99815.31;;;13.94;100.00
75136;BME280;63707;52.212;9.540;2023-07-20T06:08:37;99817.50;;;14.04;100.00
75136;BME280;63707;52.212;9.540;2023-07-20T06:11:03;99810.78;;;13.88;100.00
75136;BME280;63707;52.212;9.540;2023-07-20T06:13:28;99816.03;;;13.90;100.00
75136;BME280;63707;52.212;9.540;2023-07-20T06:15:54;99812.13;;;13.97;100.00
75136;BME280;63707;52.212;9.540;2023-07-20T06:18:21;99816.63;;;13.92;100.00
75136;BME280;63707;52.212;9.540;2023-07-20T06:23:15;99810.22;;;13.98;100.00
75136;BME280;63707;52.212;9.540;2023-07-20T06:25:40;99820.34;;;14.09;100.00
75136;BME280;63707;52.212;9.540;2023-07-20T06:28:06;99829.78;;;14.13;100.00
75136;BME280;63707;52.212;9.540;2023-07-20T06:30:33;99831.59;;;14.19;100.00
75136;BME280;63707;52.212;9.540;2023-07-20T06:32:59;99833.28;;;14.20;100.00
75136;BME280;63707;52.212;9.540;2023-07-20T06:35:25;99838.06;;;14.36;100.00
75136;BME280;63707;52.212;9.540;2023-07-20T06:37:51;99836.41;;;14.47;100.00
75136;BME280;63707;52.212;9.540;2023-07-20T06:40:18;99845.97;;;14.44;100.00
75136;BME280;63707;52.212;9.540;2023-07-20T06:42:44;99859.28;;;14.41;100.00
75136;BME280;63707;52.212;9.540;2023-07-20T06:45:09;99849.13;;;14.41;100.00
75136;BME280;63707;52.212;9.540;2023-07-20T06:47:38;99851.66;;;15.13;100.00
75136;BME280;63707;52.212;9.540;2023-07-20T06:50:05;99846.97;;;15.37;100.00
75136;BME280;63707;52.212;9.540;2023-07-20T06:52:31;99845.34;;;15.76;100.00
75136;BME280;63707;52.212;9.540;2023-07-20T06:54:57;99851.69;;;15.53;100.00
75136;BME280;63707;52.212;9.540;2023-07-20T06:57:24;99849.28;;;15.57;100.00
75136;BME280;63707;52.212;9.540;2023-07-20T06:59:50;99842.81;;;15.34;100.00
75136;BME280;63707;52.212;9.540;2023-07-20T07:02:15;99848.72;;;15.66;100.00
75136;BME280;63707;52.212;9.540;2023-07-20T07:04:41;99839.31;;;16.08;100.00
75136;BME280;63707;52.212;9.540;2023-07-20T07:07:06;99846.00;;;16.12;100.00
75136;BME280;63707;52.212;9.540;2023-07-20T07:09:32;99850.66;;;16.11;100.00
75136;BME280;63707;52.212;9.540;2023-07-20T07:11:57;99853.75;;;16.31;100.00
75136;BME280;63707;52.212;9.540;2023-07-20T07:14:24;99851.59;;;16.50;100.00
75136;BME280;63707;52.212;9.540;2023-07-20T07:16:50;99859.00;;;17.00;100.00
75136;BME280;63707;52.212;9.540;2023-07-20T07:19:15;99845.09;;;17.28;100.00
75136;BME280;63707;52.212;9.540;2023-07-20T07:21:41;99846.50;;;17.31;100.00
75136;BME280;63707;52.212;9.540;2023-07-20T07:24:06;99850.38;;;16.75;100.00
75136;BME280;63707;52.212;9.540;2023-07-20T07:26:33;99848.75;;;16.28;100.00
75136;BME280;63707;52.212;9.540;2023-07-20T07:28:58;99858.56;;;16.70;100.00
75136;BME280;63707;52.212;9.540;2023-07-20T07:31:26;99854.00;;;17.79;100.00
75136;BME280;63707;52.212;9.540;2023-07-20T07:33:51;99853.53;;;18.09;100.00
75136;BME280;63707;52.212;9.540;2023-07-20T07:36:17;99852.56;;;18.90;100.00
75136;BME280;63707;52.212;9.540;2023-07-20T07:38:42;99861.16;;;18.61;100.00
75136;BME280;63707;52.212;9.540;2023-07-20T07:41:08;99860.34;;;18.93;100.00
75136;BME280;63707;52.212;9.540;2023-07-20T07:43:33;99860.78;;;17.93;100.00
75136;BME280;63707;52.212;9.540;2023-07-20T07:46:00;99864.81;;;17.20;100.00
75136;BME280;63707;52.212;9.540;2023-07-20T07:48:27;99867.66;;;16.70;100.00
75136;BME280;63707;52.212;9.540;2023-07-20T07:50:53;99870.59;;;17.62;100.00
75136;BME280;63707;52.212;9.540;2023-07-20T07:53:19;99865.19;;;18.48;100.00
75136;BME280;63707;52.212;9.540;2023-07-20T07:55:45;99861.16;;;18.93;100.00
75136;BME280;63707;52.212;9.540;2023-07-20T07:58:12;99864.03;;;18.12;100.00
75136;BME280;63707;52.212;9.540;2023-07-20T08:00:38;99869.69;;;18.28;100.00
75136;BME280;63707;52.212;9.540;2023-07-20T08:03:06;99879.91;;;17.78;100.00
75136;BME280;63707;52.212;9.540;2023-07-20T08:05:33;99879.97;;;16.84;100.00
75136;BME280;63707;52.212;9.540;2023-07-20T08:08:00;99876.00;;;17.14;100.00
75136;BME280;63707;52.212;9.540;2023-07-20T08:10:25;99877.13;;;18.27;100.00
75136;BME280;63707;52.212;9.540;2023-07-20T08:12:51;99875.97;;;18.82;100.00
75136;BME280;63707;52.212;9.540;2023-07-20T08:15:16;99876.97;;;19.50;100.00
75136;BME280;63707;52.212;9.540;2023-07-20T08:17:42;99874.94;;;19.35;100.00
75136;BME280;63707;52.212;9.540;2023-07-20T08:20:13;99874.19;;;19.50;100.00
75136;BME280;63707;52.212;9.540;2023-07-20T08:22:40;99869.09;;;19.84;100.00
75136;BME280;63707;52.212;9.540;2023-07-20T08:25:06;99873.06;;;20.19;100.00
75136;BME280;63707;52.212;9.540;2023-07-20T08:27:32;99878.94;;;20.78;100.00
75136;BME280;63707;52.212;9.540;2023-07-20T08:29:57;99893.19;;;19.89;100.00
75136;BME280;63707;52.212;9.540;2023-07-20T08:32:23;99889.34;;;20.05;100.00
75136;BME280;63707;52.212;9.540;2023-07-20T08:34:48;99881.91;;;21.43;100.00
75136;BME280;63707;52.212;9.540;2023-07-20T08:37:14;99888.06;;;21.09;100.00
75136;BME280;63707;52.212;9.540;2023-07-20T08:39:41;99889.09;;;21.49;100.00
75136;BME280;63707;52.212;9.540;2023-07-20T08:42:06;99882.34;;;21.70;100.00
75136;BME280;63707;52.212;9.540;2023-07-20T08:44:33;99883.56;;;21.49;100.00
75136;BME280;63707;52.212;9.540;2023-07-20T08:46:59;99884.56;;;21.73;100.00
75136;BME280;63707;52.212;9.540;2023-07-20T08:49:26;99881.34;;;22.15;100.00
75136;BME280;63707;52.212;9.540;2023-07-20T08:51:52;99886.28;;;22.62;100.00
75136;BME280;63707;52.212;9.540;2023-07-20T08:54:18;99895.22;;;21.41;100.00
75136;BME280;63707;52.212;9.540;2023-07-20T08:56:45;99906.00;;;20.25;100.00
75136;BME280;63707;52.212;9.540;2023-07-20T08:59:12;99909.38;;;18.80;100.00
75136;BME280;63707;52.212;9.540;2023-07-20T09:01:39;99890.28;;;20.97;100.00
75136;BME280;63707;52.212;9.540;2023-07-20T09:04:05;99881.69;;;22.04;100.00
75136;BME280;63707;52.212;9.540;2023-07-20T09:06:31;99879.44;;;21.16;100.00
75136;BME280;63707;52.212;9.540;2023-07-20T09:08:57;99891.34;;;21.47;100.00
75136;BME280;63707;52.212;9.540;2023-07-20T09:11:22;99893.63;;;20.68;100.00
75136;BME280;63707;52.212;9.540;2023-07-20T09:14:02;99892.91;;;22.33;100.00
75136;BME280;63707;52.212;9.540;2023-07-20T09:16:28;99886.13;;;22.49;100.00
75136;BME280;63707;52.212;9.540;2023-07-20T09:18:53;99883.63;;;22.86;100.00
75136;BME280;63707;52.212;9.540;2023-07-20T09:21:19;99886.69;;;22.85;100.00
75136;BME280;63707;52.212;9.540;2023-07-20T09:23:44;99883.59;;;23.15;100.00
75136;BME280;63707;52.212;9.540;2023-07-20T09:26:10;99895.03;;;22.46;100.00
75136;BME280;63707;52.212;9.540;2023-07-20T09:31:15;99900.06;;;21.84;100.00
75136;BME280;63707;52.212;9.540;2023-07-20T09:33:42;99892.00;;;22.81;100.00
75136;BME280;63707;52.212;9.540;2023-07-20T09:36:09;99894.53;;;23.07;100.00
75136;BME280;63707;52.212;9.540;2023-07-20T09:38:36;99891.91;;;23.73;100.00
75136;BME280;63707;52.212;9.540;2023-07-20T09:41:02;99890.56;;;21.95;100.00
75136;BME280;63707;52.212;9.540;2023-07-20T09:43:28;99898.06;;;20.85;100.00
75136;BME280;63707;52.212;9.540;2023-07-20T09:45:57;99908.00;;;20.55;100.00
75136;BME280;63707;52.212;9.540;2023-07-20T09:48:25;99907.19;;;20.70;100.00
75136;BME280;63707;52.212;9.540;2023-07-20T09:50:52;99896.22;;;22.35;100.00
75136;BME280;63707;52.212;9.540;2023-07-20T09:53:19;99892.91;;;22.72;100.00
75136;BME280;63707;52.212;9.540;2023-07-20T09:55:45;99895.72;;;23.01;100.00
75136;BME280;63707;52.212;9.540;2023-07-20T09:58:11;99898.63;;;22.46;100.00
75136;BME280;63707;52.212;9.540;2023-07-20T10:00:38;99899.94;;;22.54;100.00
75136;BME280;63707;52.212;9.540;2023-07-20T10:03:04;99900.00;;;22.05;100.00
75136;BME280;63707;52.212;9.540;2023-07-20T10:05:34;99899.53;;;22.76;100.00
75136;BME280;63707;52.212;9.540;2023-07-20T10:08:01;99899.31;;;23.30;100.00
75136;BME280;63707;52.212;9.540;2023-07-20T10:10:28;99901.31;;;22.96;100.00
75136;BME280;63707;52.212;9.540;2023-07-20T10:12:54;99894.91;;;23.77;100.00
75136;BME280;63707;52.212;9.540;2023-07-20T10:15:24;99891.00;;;23.78;100.00
75136;BME280;63707;52.212;9.540;2023-07-20T10:18:02;99888.44;;;24.24;100.00
75136;BME280;63707;52.212;9.540;2023-07-20T10:20:29;99897.50;;;23.92;100.00
75136;BME280;63707;52.212;9.540;2023-07-20T10:22:57;99884.00;;;23.33;100.00
75136;BME280;63707;52.212;9.540;2023-07-20T10:25:23;99892.59;;;23.84;100.00
75136;BME280;63707;52.212;9.540;2023-07-20T10:27:49;99887.56;;;24.99;100.00
75136;BME280;63707;52.212;9.540;2023-07-20T10:30:14;99891.06;;;22.91;100.00
75136;BME280;63707;52.212;9.540;2023-07-20T10:32:42;99885.84;;;24.09;100.00
75136;BME280;63707;52.212;9.540;2023-07-20T10:35:12;99893.28;;;22.94;100.00
75136;BME280;63707;52.212;9.540;2023-07-20T10:37:49;99884.38;;;22.58;100.00
75136;BME280;63707;52.212;9.540;2023-07-20T10:40:30;99879.53;;;24.03;100.00
75136;BME280;63707;52.212;9.540;2023-07-20T10:42:57;99870.34;;;24.59;100.00
75136;BME280;63707;52.212;9.540;2023-07-20T10:45:33;99871.28;;;23.50;100.00
75136;BME280;63707;52.212;9.540;2023-07-20T10:48:03;99881.03;;;22.17;100.00
75136;BME280;63707;52.212;9.540;2023-07-20T10:50:29;99890.81;;;21.40;100.00
75136;BME280;63707;52.212;9.540;2023-07-20T10:53:04;99902.09;;;20.16;100.00
75136;BME280;63707;52.212;9.540;2023-07-20T10:55:32;99883.09;;;20.55;100.00
75136;BME280;63707;52.212;9.540;2023-07-20T10:58:06;99896.13;;;20.55;100.00
75136;BME280;63707;52.212;9.540;2023-07-20T11:00:32;99880.44;;;22.30;100.00
75136;BME280;63707;52.212;9.540;2023-07-20T11:02:58;99881.16;;;23.62;100.00
75136;BME280;63707;52.212;9.540;2023-07-20T11:05:35;99875.94;;;21.85;100.00
75136;BME280;63707;52.212;9.540;2023-07-20T11:08:03;99878.44;;;21.86;100.00
75136;BME280;63707;52.212;9.540;2023-07-20T11:10:29;99875.16;;;23.97;100.00
75136;BME280;63707;52.212;9.540;2023-07-20T11:13:17;99873.25;;;22.24;100.00
75136;BME280;63707;52.212;9.540;2023-07-20T11:15:46;99885.25;;;21.19;100.00
75136;BME280;63707;52.212;9.540;2023-07-20T11:18:13;99888.91;;;20.69;100.00
75136;BME280;63707;52.212;9.540;2023-07-20T11:20:39;99881.00;;;22.61;100.00
75136;BME280;63707;52.212;9.540;2023-07-20T11:23:05;99883.72;;;23.05;100.00
75136;BME280;63707;52.212;9.540;2023-07-20T11:25:36;99880.78;;;21.54;100.00
75136;BME280;63707;52.212;9.540;2023-07-20T11:28:06;99881.63;;;21.44;100.00
75136;BME280;63707;52.212;9.540;2023-07-20T11:30:34;99877.50;;;21.36;100.00
75136;BME280;63707;52.212;9.540;2023-07-20T11:32:59;99876.66;;;21.41;100.00
75136;BME280;63707;52.212;9.540;2023-07-20T11:35:25;99882.78;;;21.28;100.00
75136;BME280;63707;52.212;9.540;2023-07-20T11:37:51;99886.19;;;22.39;100.00
75136;BME280;63707;52.212;9.540;2023-07-20T11:40:16;99877.94;;;21.64;100.00
75136;BME280;63707;52.212;9.540;2023-07-20T11:42:42;99874.59;;;21.72;100.00
75136;BME280;63707;52.212;9.540;2023-07-20T11:45:09;99869.22;;;21.11;100.00
75136;BME280;63707;52.212;9.540;2023-07-20T11:47:39;99873.69;;;20.92;100.00
75136;BME280;63707;52.212;9.540;2023-07-20T11:50:06;99865.09;;;21.88;100.00
75136;BME280;63707;52.212;9.540;2023-07-20T11:52:33;99870.78;;;22.17;100.00
75136;BME280;63707;52.212;9.540;2023-07-20T11:54:58;99872.28;;;23.83;100.00
75136;BME280;63707;52.212;9.540;2023-07-20T11:57:24;99861.75;;;23.80;100.00
75136;BME280;63707;52.212;9.540;2023-07-20T11:59:53;99872.59;;;23.05;100.00
75136;BME280;63707;52.212;9.540;2023-07-20T12:02:22;99874.78;;;21.91;100.00
75136;BME280;63707;52.212;9.540;2023-07-20T12:04:49;99864.06;;;22.97;100.00
75136;BME280;63707;52.212;9.540;2023-07-20T12:07:14;99853.66;;;24.22;100.00
75136;BME280;63707;52.212;9.540;2023-07-20T12:09:40;99863.38;;;23.10;100.00
75136;BME280;63707;52.212;9.540;2023-07-20T12:12:10;99867.06;;;22.66;100.00
75136;BME280;63707;52.212;9.540;2023-07-20T12:14:37;99862.00;;;22.44;100.00
75136;BME280;63707;52.212;9.540;2023-07-20T12:17:02;99873.00;;;22.15;100.00
75136;BME280;63707;52.212;9.540;2023-07-20T12:19:28;99863.44;;;20.72;100.00
75136;BME280;63707;52.212;9.540;2023-07-20T12:21:57;99859.56;;;20.73;100.00
75136;BME280;63707;52.212;9.540;2023-07-20T12:24:24;99871.41;;;21.40;100.00
75136;BME280;63707;52.212;9.540;2023-07-20T12:26:55;99869.22;;;21.06;100.00
75136;BME280;63707;52.212;9.540;2023-07-20T12:29:21;99860.31;;;22.82;100.00
75136;BME280;63707;52.212;9.540;2023-07-20T12:31:47;99855.16;;;21.82;100.00
75136;BME280;63707;52.212;9.540;2023-07-20T12:34:12;99848.97;;;21.21;100.00
75136;BME280;63707;52.212;9.540;2023-07-20T12:36:38;99860.97;;;20.86;100.00
75136;BME280;63707;52.212;9.540;2023-07-20T12:39:05;99868.59;;;21.50;100.00
75136;BME280;63707;52.212;9.540;2023-07-20T12:41:30;99861.22;;;20.99;100.00
75136;BME280;63707;52.212;9.540;2023-07-20T12:43:56;99854.84;;;20.89;100.00
75136;BME280;63707;52.212;9.540;2023-07-20T12:46:23;99852.09;;;20.63;100.00
75136;BME280;63707;52.212;9.540;2023-07-20T12:48:49;99851.22;;;20.32;100.00
75136;BME280;63707;52.212;9.540;2023-07-20T12:51:15;99855.97;;;20.57;100.00
75136;BME280;63707;52.212;9.540;2023-07-20T12:53:40;99862.25;;;20.12;100.00